createdAt,value
2022-11-30T00:04:02.114Z,12.62
2022-11-30T00:09:21.301Z,12.62
2022-11-30T00:14:40.618Z,12.62
2022-11-30T00:19:59.675Z,12.62
2022-11-30T00:30:38.819Z,12.62
2022-11-30T00:35:58.509Z,12.62
2022-11-30T00:41:18.018Z,12.62
2022-11-30T00:46:45.131Z,12.62
2022-11-30T00:51:56.334Z,12.62
2022-11-30T00:57:23.491Z,12.61
2022-11-30T01:02:35.080Z,12.61
2022-11-30T01:08:03.739Z,12.62
2022-11-30T01:13:14.029Z,12.61
2022-11-30T01:18:33.373Z,12.6
2022-11-30T01:23:52.335Z,12.61
2022-11-30T01:29:11.511Z,12.61
2022-11-30T01:39:49.958Z,12.61
2022-11-30T01:45:16.909Z,12.61
2022-11-30T01:50:28.290Z,12.61
2022-11-30T01:55:47.718Z,12.61
2022-11-30T02:01:07.089Z,12.61
2022-11-30T02:11:45.873Z,12.6
2022-11-30T02:17:05.416Z,12.61
2022-11-30T02:22:31.971Z,12.6
2022-11-30T02:27:43.327Z,12.6
2022-11-30T02:33:02.751Z,12.6
2022-11-30T02:38:21.967Z,12.6
2022-11-30T02:43:41.520Z,12.6
2022-11-30T02:54:20.660Z,12.6
2022-11-30T02:59:39.770Z,12.6
2022-11-30T03:04:59.175Z,12.6
2022-11-30T03:10:18.028Z,12.6
2022-11-30T03:15:37.727Z,12.6
2022-11-30T03:20:56.934Z,12.6
2022-11-30T03:26:15.735Z,12.6
2022-11-30T03:37:01.635Z,12.6
2022-11-30T03:42:13.219Z,12.6
2022-11-30T03:47:32.332Z,12.6
2022-11-30T03:52:51.842Z,12.6
2022-11-30T03:58:11.003Z,12.6
2022-11-30T04:03:30.274Z,12.6
2022-11-30T04:08:50.222Z,12.58
2022-11-30T04:19:28.661Z,12.59
2022-11-30T04:24:48.330Z,12.6
2022-11-30T04:30:06.912Z,12.59
2022-11-30T04:35:26.548Z,12.6
2022-11-30T04:40:46.232Z,12.6
2022-11-30T04:46:05.542Z,12.59
2022-11-30T04:51:25.044Z,12.59
2022-11-30T05:02:12.547Z,12.59
2022-11-30T05:07:23.002Z,12.59
2022-11-30T05:12:41.660Z,12.6
2022-11-30T05:18:00.982Z,12.59
2022-11-30T05:23:20.687Z,12.59
2022-11-30T05:28:40.678Z,12.59
2022-11-30T05:33:59.673Z,12.59
2022-11-30T05:39:18.875Z,12.59
2022-11-30T05:44:38.148Z,12.59
2022-11-30T05:55:15.847Z,12.58
2022-11-30T06:00:35.540Z,12.58
2022-11-30T06:06:03.317Z,12.59
2022-11-30T06:11:14.176Z,12.58
2022-11-30T06:16:33.099Z,12.58
2022-11-30T06:21:52.819Z,12.59
2022-11-30T06:27:12.664Z,12.59
2022-11-30T06:32:31.393Z,12.58
2022-11-30T06:37:50.746Z,12.58
2022-11-30T06:43:09.909Z,12.58
2022-11-30T06:48:28.922Z,12.58
2022-11-30T06:53:48.357Z,12.58
2022-11-30T06:59:07.694Z,12.58
2022-11-30T07:04:36.180Z,12.58
2022-11-30T07:09:56.779Z,12.58
2022-11-30T07:15:05.844Z,12.58
2022-11-30T07:20:25.378Z,12.58
2022-11-30T07:25:44.213Z,12.58
2022-11-30T07:31:03.248Z,12.6
2022-11-30T07:36:31.435Z,12.62
2022-11-30T07:41:42.062Z,12.62
2022-11-30T07:47:01.272Z,12.61
2022-11-30T07:52:20.569Z,12.62
2022-11-30T07:57:39.427Z,12.62
2022-11-30T08:03:06.761Z,12.63
2022-11-30T08:08:27.586Z,12.66
2022-11-30T08:13:37.838Z,12.64
2022-11-30T08:19:05.137Z,12.64
2022-11-30T08:24:16.879Z,12.61
2022-11-30T08:29:35.692Z,12.62
2022-11-30T08:34:54.940Z,12.66
2022-11-30T08:40:13.799Z,12.68
2022-11-30T08:45:33.316Z,12.72
2022-11-30T08:50:52.806Z,12.71
2022-11-30T08:56:11.325Z,12.73
2022-11-30T09:01:31.565Z,12.72
2022-11-30T09:06:49.745Z,12.72
2022-11-30T09:12:08.622Z,12.68
2022-11-30T09:17:28.203Z,12.67
2022-11-30T09:22:47.541Z,12.68
2022-11-30T09:28:10.862Z,12.71
2022-11-30T09:33:25.522Z,12.74
2022-11-30T09:44:04.619Z,12.87
2022-11-30T09:49:24.175Z,12.92
2022-11-30T09:54:43.384Z,12.95
2022-11-30T10:00:03.077Z,12.94
2022-11-30T10:05:21.909Z,12.93
2022-11-30T10:10:49.574Z,12.91
2022-11-30T10:16:00.154Z,12.9
2022-11-30T10:21:18.844Z,12.93
2022-11-30T10:26:38.374Z,12.94
2022-11-30T10:31:57.584Z,12.99
2022-11-30T10:42:35.924Z,13.02
2022-11-30T10:47:55.004Z,13
2022-11-30T10:53:14.380Z,13
2022-11-30T10:58:33.470Z,12.99
2022-11-30T11:04:01.644Z,12.96
2022-11-30T11:09:12.009Z,12.92
2022-11-30T11:14:36.406Z,12.92
2022-11-30T11:25:10.679Z,12.89
2022-11-30T11:30:29.959Z,12.9
2022-11-30T11:35:59.319Z,12.89
2022-11-30T11:41:08.526Z,12.9
2022-11-30T11:46:27.799Z,12.9
2022-11-30T11:51:46.575Z,12.91
2022-11-30T11:52:11.341Z,12.88
2022-11-30T11:57:30.778Z,12.91
2022-11-30T12:02:50.318Z,12.93
2022-11-30T12:08:18.447Z,12.95
2022-11-30T12:13:28.574Z,12.96
2022-11-30T12:18:47.897Z,12.98
2022-11-30T12:24:06.965Z,12.96
2022-11-30T12:29:26.555Z,12.98
2022-11-30T12:40:04.695Z,12.99
2022-11-30T12:45:24.193Z,12.99
2022-11-30T12:50:44.034Z,13.02
2022-11-30T12:56:03.215Z,13.04
2022-11-30T13:01:22.812Z,13.06
2022-11-30T13:06:41.277Z,13.03
2022-11-30T13:12:00.366Z,13.02
2022-11-30T13:17:19.881Z,13
2022-11-30T13:22:39.650Z,12.98
2022-11-30T13:27:59.088Z,12.95
2022-11-30T13:33:18.218Z,12.92
2022-11-30T13:38:37.959Z,12.91
2022-11-30T13:43:56.341Z,12.88
2022-11-30T13:49:15.448Z,12.86
2022-11-30T13:54:43.662Z,12.82
2022-11-30T13:59:53.893Z,12.8
2022-11-30T14:05:12.825Z,12.79
2022-11-30T14:10:31.758Z,12.77
2022-11-30T14:15:51.196Z,12.76
2022-11-30T14:21:10.111Z,12.74
2022-11-30T14:26:29.181Z,12.72
2022-11-30T14:31:48.113Z,12.7
2022-11-30T14:37:14.928Z,12.69
2022-11-30T14:42:25.931Z,12.67
2022-11-30T14:47:48.057Z,12.67
2022-11-30T14:53:04.014Z,12.65
2022-11-30T14:58:22.658Z,12.65
2022-11-30T15:03:41.948Z,12.64
2022-11-30T15:09:01.281Z,12.63
2022-11-30T15:14:20.676Z,12.62
2022-11-30T15:25:00.433Z,12.61
2022-11-30T15:30:19.336Z,12.6
2022-11-30T15:35:57.203Z,12.6
2022-11-30T15:41:01.789Z,12.6
2022-11-30T15:46:16.502Z,12.6
2022-11-30T15:51:36.144Z,12.6
2022-11-30T15:56:55.018Z,12.59
2022-11-30T16:07:33.161Z,12.58
2022-11-30T16:12:52.631Z,12.58
2022-11-30T16:18:11.978Z,12.58
2022-11-30T16:23:30.920Z,12.58
2022-11-30T16:28:50.664Z,12.58
2022-11-30T16:34:10.527Z,12.58
2022-11-30T16:39:29.461Z,12.57
2022-11-30T16:50:07.958Z,12.57
2022-11-30T16:55:27.427Z,12.57
2022-11-30T17:00:46.259Z,12.57
2022-11-30T17:06:05.072Z,12.57
2022-11-30T17:11:24.760Z,12.57
2022-11-30T17:16:43.723Z,12.57
2022-11-30T17:22:02.672Z,12.56
2022-11-30T17:27:21.581Z,12.56
2022-11-30T17:32:40.478Z,12.57
2022-11-30T17:37:59.753Z,12.57
2022-11-30T17:48:38.337Z,12.56
2022-11-30T17:53:57.346Z,12.56
2022-11-30T17:59:17.067Z,12.56
2022-11-30T18:04:36.835Z,12.56
2022-11-30T18:10:04.566Z,12.56
2022-11-30T18:15:15.724Z,12.56
2022-11-30T18:20:34.331Z,12.55
2022-11-30T18:31:12.721Z,12.56
2022-11-30T18:36:31.415Z,12.56
2022-11-30T18:41:50.378Z,12.56
2022-11-30T18:47:10.296Z,12.55
2022-11-30T18:52:28.141Z,12.55
2022-11-30T18:57:46.953Z,12.56
2022-11-30T19:03:06.183Z,12.55
2022-11-30T19:08:25.484Z,12.55
2022-11-30T19:13:45.170Z,12.55
2022-11-30T19:19:03.317Z,12.55
2022-11-30T19:24:22.256Z,12.55
2022-11-30T19:29:42.271Z,12.55
2022-11-30T19:35:01.949Z,12.55
2022-11-30T19:40:29.347Z,12.54
2022-11-30T19:50:58.219Z,12.55
2022-11-30T19:56:17.303Z,12.54
2022-11-30T20:01:35.992Z,12.55
2022-11-30T20:06:55.238Z,12.55
2022-11-30T20:12:14.969Z,12.54
2022-11-30T20:17:41.877Z,12.55
2022-11-30T20:22:53.761Z,12.54
2022-11-30T20:33:31.818Z,12.54
2022-11-30T20:38:51.432Z,12.54
2022-11-30T20:44:10.451Z,12.54
2022-11-30T20:49:29.643Z,12.54
2022-11-30T20:54:48.947Z,12.54
2022-11-30T21:00:12.793Z,12.54
2022-11-30T21:05:27.311Z,12.54
2022-11-30T21:10:46.731Z,12.54
2022-11-30T21:16:05.944Z,12.54
2022-11-30T21:21:25.253Z,12.54
2022-11-30T21:26:44.427Z,12.54
2022-11-30T21:32:03.649Z,12.54
2022-11-30T21:37:22.421Z,12.54
2022-11-30T21:42:41.499Z,12.54
2022-11-30T21:48:01.011Z,12.54
2022-11-30T21:58:40.185Z,12.54
2022-11-30T22:04:00.698Z,12.54
2022-11-30T22:09:18.712Z,12.54
2022-11-30T22:14:38.023Z,12.54
2022-11-30T22:19:57.745Z,12.53
2022-11-30T22:25:16.556Z,12.53
2022-11-30T22:30:35.179Z,12.53
2022-11-30T22:35:55.083Z,12.53
2022-11-30T22:41:15.490Z,12.54
2022-11-30T22:46:34.545Z,12.54
2022-11-30T22:57:12.639Z,12.53
2022-11-30T23:07:51.569Z,12.53
2022-11-30T23:13:10.876Z,12.53
2022-11-30T23:23:50.036Z,12.53
2022-11-30T23:29:09.381Z,12.53
2022-11-30T23:39:48.297Z,12.53
2022-11-30T23:45:07.233Z,12.52
2022-11-30T23:50:26.287Z,12.52
2022-11-30T23:55:53.942Z,12.53
